Time;durP1;ratioP1;P1;durP2;ratioP2;P2;SDS_P1;SDS_P2;PMS_P1;PMS_P2;Temp;Humidity;BMP_temperature;BMP_pressure;BME280_temperature;BME280_humidity;BME280_pressure;Samples;Min_cycle;Max_cycle;Signal;HPM_P1;HPM_P2
2022/02/08 00:00:49;;;;;;;7.03;2.90;;;5.00;1.00;5.40;101849.00;;;;4991046;28;20442;-80
2022/02/08 00:03:20;;;;;;;8.03;3.00;;;5.00;1.00;5.50;101837.00;;;;4993632;28;20438;-80
2022/02/08 00:06:00;;;;;;;6.20;2.50;;;5.20;1.00;5.50;101845.00;;;;4979950;28;20474;-79
2022/02/08 00:08:28;;;;;;;10.00;3.20;;;5.00;1.00;5.40;101835.00;;;;4966887;28;20455;-80
2022/02/08 00:10:56;;;;;;;5.77;2.50;;;5.00;1.00;5.50;101829.00;;;;4966081;28;20640;-79
2022/02/08 00:13:25;;;;;;;7.60;2.70;;;5.00;1.00;5.50;101829.00;;;;4963490;28;20468;-78
2022/02/08 00:15:54;;;;;;;8.23;2.60;;;4.90;1.00;5.50;101828.00;;;;4978066;28;20475;-78
2022/02/08 00:18:22;;;;;;;6.17;2.60;;;5.00;1.00;5.60;101821.00;;;;4978874;28;20459;-79
2022/02/08 00:20:51;;;;;;;10.40;3.07;;;5.00;1.00;5.60;101831.00;;;;4969258;28;20482;-80
2022/02/08 00:23:19;;;;;;;9.60;2.27;;;5.10;1.00;217.30;159092.00;;;;4968556;28;20455;-78
2022/02/08 00:25:47;;;;;;;6.03;2.20;;;5.20;1.00;5.60;101828.00;;;;4966389;28;20474;-79
2022/02/08 00:28:17;;;;;;;8.67;2.80;;;5.20;1.00;5.60;101825.00;;;;4969050;28;20456;-79
2022/02/08 00:30:45;;;;;;;6.73;2.77;;;5.30;1.00;5.70;101839.00;;;;4966730;28;20502;-79
2022/02/08 00:33:15;;;;;;;8.90;2.73;;;5.30;1.00;5.80;101830.00;;;;4981913;28;20451;-79
2022/02/08 00:35:43;;;;;;;6.17;2.77;;;5.30;1.00;5.70;101816.00;;;;4965838;28;20965;-79
2022/02/08 00:38:12;;;;;;;3.87;2.37;;;5.20;1.00;5.70;101835.00;;;;4965438;28;20468;-78
2022/02/08 00:40:43;;;;;;;6.60;2.60;;;5.20;1.00;5.80;101823.00;;;;4966756;28;20463;-79
2022/02/08 00:43:12;;;;;;;7.47;2.37;;;5.30;1.00;5.70;101828.00;;;;4974012;28;20451;-80
2022/02/08 00:45:50;;;;;;;7.97;2.53;;;5.30;1.00;5.80;101837.00;;;;4972823;28;20456;-78
2022/02/08 00:48:28;;;;;;;11.20;3.10;;;5.30;1.00;5.90;101821.00;;;;4963988;28;20448;-79
2022/02/08 00:50:57;;;;;;;6.83;2.27;;;5.40;1.00;6.00;101823.00;;;;4966967;28;20926;-79
2022/02/08 00:53:25;;;;;;;7.17;3.40;;;5.60;1.00;6.00;101828.00;;;;4968308;28;20463;-79
2022/02/08 00:55:54;;;;;;;9.47;3.10;;;5.70;1.00;6.00;101807.00;;;;4981611;28;20466;-78
2022/02/08 00:58:22;;;;;;;9.70;2.40;;;5.90;1.00;6.00;101819.00;;;;4969820;28;20467;-79
2022/02/08 01:00:50;;;;;;;5.30;3.40;;;5.50;1.00;6.00;101806.00;;;;4974756;28;20467;-79
2022/02/08 01:03:20;;;;;;;5.63;2.30;;;5.50;1.00;6.00;101822.00;;;;4972930;28;20514;-79
2022/02/08 01:05:53;;;;;;;11.10;3.13;;;5.50;1.00;217.30;159226.00;;;;4973350;28;20482;-79
2022/02/08 01:08:28;;;;;;;8.53;2.80;;;5.50;1.00;5.90;101824.00;;;;4987894;28;20510;-79
2022/02/08 01:10:56;;;;;;;7.80;2.67;;;5.50;1.00;217.30;159201.00;;;;4976446;28;20835;-79
2022/02/08 01:13:25;;;;;;;8.03;2.67;;;5.50;1.00;5.90;101793.00;;;;4990971;28;20461;-80
2022/02/08 01:15:54;;;;;;;11.77;2.40;;;5.40;1.00;5.90;101801.00;;;;4978479;28;20470;-78
2022/02/08 01:18:25;;;;;;;8.73;3.10;;;5.40;1.00;5.90;101814.00;;;;4986355;28;20515;-79
2022/02/08 01:20:53;;;;;;;7.37;2.50;;;5.40;1.00;6.00;101807.00;;;;4974330;28;20455;-78
2022/02/08 01:23:21;;;;;;;6.17;2.80;;;5.50;1.00;6.00;101805.00;;;;4966802;28;20459;-80
2022/02/08 01:25:53;;;;;;;10.30;3.10;;;5.50;1.00;6.00;101816.00;;;;4966575;28;21227;-78
2022/02/08 01:28:30;;;;;;;8.40;3.07;;;5.50;1.00;6.00;101805.00;;;;4982066;28;20471;-79
2022/02/08 01:31:02;;;;;;;5.57;3.80;;;5.50;1.00;6.00;101800.00;;;;4973115;28;20474;-79
2022/02/08 01:34:03;;;;;;;5.27;2.87;;;5.50;1.00;6.00;101810.00;;;;4989089;28;20836;-79
2022/02/08 01:36:40;;;;;;;8.57;3.00;;;5.50;1.00;6.00;101804.00;;;;4986889;28;20543;-79
2022/02/08 01:39:16;;;;;;;6.67;3.13;;;5.70;1.00;6.00;101802.00;;;;4985147;28;20448;-78
2022/02/08 01:42:15;;;;;;;7.53;2.80;;;5.80;1.00;6.00;101785.00;;;;4966356;28;20864;-78
2022/02/08 01:44:57;;;;;;;6.50;2.30;;;5.60;1.00;217.30;159278.00;;;;4965428;28;20470;-78
2022/02/08 01:47:30;;;;;;;4.93;2.20;;;5.60;1.00;6.00;101783.00;;;;4973691;28;20882;-78
2022/02/08 01:50:10;;;;;;;6.20;2.30;;;5.60;1.00;6.10;101776.00;;;;4978302;28;21457;-78
2022/02/08 01:52:41;;;;;;;7.00;3.17;;;5.70;1.00;6.20;101781.00;;;;4994384;28;20479;-79
2022/02/08 01:55:16;;;;;;;9.00;2.50;;;5.80;1.00;6.30;67641.00;;;;4978907;28;20514;-78
2022/02/08 01:57:46;;;;;;;7.90;2.90;;;5.80;1.00;6.30;101775.00;;;;4960614;28;20474;-78
2022/02/08 02:00:18;;;;;;;7.53;3.13;;;5.90;1.00;6.30;101764.00;;;;4962443;28;20455;-78
2022/02/08 02:02:49;;;;;;;8.63;2.23;;;5.90;1.00;6.40;101770.00;;;;4961905;28;21007;-78
2022/02/08 02:05:27;;;;;;;12.07;3.10;;;6.00;1.00;6.40;101771.00;;;;4979149;28;20479;-78
2022/02/08 02:07:55;;;;;;;9.80;3.07;;;6.00;1.00;6.40;101769.00;;;;4978291;28;20452;-78
2022/02/08 02:10:24;;;;;;;8.13;2.67;;;6.00;1.00;6.50;101773.00;;;;4962344;28;20468;-78
2022/02/08 02:12:57;;;;;;;7.30;2.43;;;6.20;1.00;6.50;101764.00;;;;4978202;28;20471;-78
2022/02/08 02:15:32;;;;;;;7.97;2.37;;;6.20;1.00;6.60;101761.00;;;;4993457;28;20479;-79
2022/02/08 02:18:00;;;;;;;8.17;4.20;;;6.30;1.00;6.50;101772.00;;;;4975451;28;21261;-79
2022/02/08 02:20:33;;;;;;;9.30;3.07;;;6.60;1.00;6.50;101758.00;;;;4981459;28;21020;-79
2022/02/08 02:23:02;;;;;;;5.90;2.23;;;6.30;1.00;6.40;101703.00;;;;4987172;28;20448;-78
2022/02/08 02:25:33;;;;;;;7.00;3.37;;;6.40;1.00;6.40;101768.00;;;;4984990;28;20478;-78
2022/02/08 02:28:06;;;;;;;6.83;3.53;;;6.10;1.00;6.40;101775.00;;;;4980245;28;20945;-78
2022/02/08 02:30:36;;;;;;;13.03;3.10;;;6.00;1.00;6.40;101767.00;;;;4979857;28;20463;-78
2022/02/08 02:33:08;;;;;;;11.53;3.83;;;6.10;1.00;6.50;101771.00;;;;4981133;28;20490;-79
2022/02/08 02:35:38;;;;;;;9.50;3.30;;;6.10;1.00;6.50;101764.00;;;;4969087;28;20467;-79
2022/02/08 02:38:08;;;;;;;7.70;2.67;;;6.10;1.00;6.40;101773.00;;;;5002543;28;20515;-78
2022/02/08 02:40:43;;;;;;;6.80;2.90;;;6.20;1.00;6.40;101773.00;;;;4997105;28;20551;-78
2022/02/08 02:43:15;;;;;;;7.60;3.50;;;6.00;1.00;6.40;101754.00;;;;4995459;28;20972;-79
2022/02/08 02:45:44;;;;;;;6.17;2.73;;;5.90;1.00;6.30;101770.00;;;;4989518;28;20448;-79
2022/02/08 02:48:14;;;;;;;7.40;3.10;;;5.80;1.00;6.20;101778.00;;;;4994661;28;20498;-78
2022/02/08 02:50:52;;;;;;;9.43;3.33;;;5.80;1.00;6.20;101769.00;;;;4995620;28;21106;-78
2022/02/08 02:53:25;;;;;;;14.67;4.33;;;5.80;1.00;6.20;101757.00;;;;4986821;28;20451;-79
2022/02/08 02:55:56;;;;;;;7.77;3.00;;;5.60;1.00;6.10;101748.00;;;;4985936;28;20460;-79
2022/02/08 02:58:29;;;;;;;8.83;3.00;;;5.60;1.00;6.20;101737.00;;;;4963976;28;20608;-80
2022/02/08 03:01:23;;;;;;;8.37;3.00;;;5.70;1.00;6.10;101753.00;;;;4972126;28;20567;-78
2022/02/08 03:04:07;;;;;;;6.80;2.80;;;5.70;1.00;6.10;101756.00;;;;5006910;28;20452;-78
2022/02/08 03:20:38;;;;;;;8.03;3.87;;;5.80;1.00;6.20;101752.00;;;;4934862;28;20464;-78
2022/02/08 03:23:14;;;;;;;9.10;3.03;;;5.70;1.00;6.30;101751.00;;;;4982546;28;20459;-77
2022/02/08 03:25:44;;;;;;;6.80;3.13;;;6.10;1.00;6.30;101763.00;;;;4985495;28;20452;-77
2022/02/08 03:28:20;;;;;;;7.80;2.90;;;5.80;1.00;6.10;101749.00;;;;4966242;28;21103;-77
2022/02/08 03:30:48;;;;;;;9.63;3.37;;;5.90;1.00;6.00;101756.00;;;;4965890;28;20460;-76
2022/02/08 03:33:19;;;;;;;11.67;3.40;;;5.60;1.00;6.10;101748.00;;;;4980945;28;20455;-78
2022/02/08 03:35:50;;;;;;;8.97;3.90;;;5.60;1.00;6.10;101754.00;;;;4981547;28;20495;-77
2022/02/08 03:38:24;;;;;;;9.20;3.13;;;5.60;1.00;6.10;101746.00;;;;4966955;28;20475;-81
2022/02/08 03:40:53;;;;;;;9.37;2.90;;;5.70;1.00;6.00;101750.00;;;;4985587;28;20483;-77
2022/02/08 03:43:32;;;;;;;9.53;3.43;;;5.60;1.00;6.10;101770.00;;;;4985132;28;20484;-79
2022/02/08 03:46:08;;;;;;;9.17;3.23;;;5.70;1.00;6.20;101752.00;;;;4981386;28;20462;-78
2022/02/08 03:48:39;;;;;;;7.53;3.67;;;5.70;1.00;6.20;101777.00;;;;4980559;28;20466;-79
2022/02/08 03:51:11;;;;;;;12.63;3.90;;;5.70;1.00;6.20;101766.00;;;;4981677;28;20882;-79
2022/02/08 03:53:48;;;;;;;10.20;3.60;;;5.70;1.00;6.20;101781.00;;;;4970491;28;20595;-78
2022/02/08 03:56:23;;;;;;;8.73;3.87;;;5.70;1.00;6.20;101778.00;;;;4962220;28;20478;-80
2022/02/08 03:58:59;;;;;;;11.90;3.80;;;5.80;1.00;6.30;101781.00;;;;4988483;28;20554;-78
2022/02/08 04:02:02;;;;;;;5.53;2.30;;;5.90;1.00;6.30;101769.00;;;;4988321;28;20487;-78
2022/02/08 04:04:45;;;;;;;7.80;3.00;;;6.10;1.00;6.30;101773.00;;;;4969497;28;20494;-78
2022/02/08 04:07:17;;;;;;;11.20;3.37;;;5.90;1.00;6.20;67623.00;;;;4969921;28;20513;-77
2022/02/08 04:09:57;;;;;;;8.63;3.10;;;5.80;1.00;6.20;101747.00;;;;4970434;28;20459;-82
2022/02/08 04:12:32;;;;;;;9.40;3.60;;;5.70;1.00;6.20;67625.00;;;;4970857;28;21090;-79
2022/02/08 04:15:19;;;;;;;7.10;3.03;;;5.70;1.00;6.20;101772.00;;;;4970510;28;20477;-80
2022/02/08 04:18:12;;;;;;;9.33;2.73;;;5.60;1.00;6.20;101764.00;;;;4969321;28;20518;-77
2022/02/08 04:34:50;;;;;;;9.90;3.53;;;5.70;1.00;6.20;101773.00;;;;4954593;28;20463;-79
2022/02/08 04:43:04;;;;;;;8.50;3.10;;;5.80;1.00;6.20;101775.00;;;;4967898;28;20492;-77
2022/02/08 04:45:39;;;;;;;8.87;2.87;;;5.70;1.00;6.20;101782.00;;;;4970920;28;20443;-80
2022/02/08 04:48:17;;;;;;;11.20;3.43;;;5.70;1.00;6.10;101775.00;;;;4969376;28;20509;-77
2022/02/08 04:50:46;;;;;;;11.57;3.30;;;5.60;1.00;6.20;101785.00;;;;4970845;28;21026;-77
2022/02/08 04:53:25;;;;;;;8.87;2.90;;;5.60;1.00;6.20;67628.00;;;;4970194;28;21012;-79
2022/02/08 04:56:00;;;;;;;9.03;3.47;;;5.70;1.00;6.30;101757.00;;;;4970283;28;20448;-77
2022/02/08 04:58:36;;;;;;;9.60;3.80;;;5.80;1.00;6.20;101775.00;;;;4970883;28;20513;-79
2022/02/08 05:01:12;;;;;;;6.10;3.00;;;5.70;1.00;6.20;101756.00;;;;4971005;28;20475;-77
2022/02/08 05:34:52;;;;;;;8.37;2.83;;;5.70;1.00;6.20;101747.00;;;;4971316;28;20459;-79
2022/02/08 05:43:09;;;;;;;10.17;3.63;;;5.80;1.00;6.30;101740.00;;;;4960345;28;20503;-79
2022/02/08 05:45:59;;;;;;;10.70;3.20;;;6.00;1.00;6.30;101741.00;;;;4965474;28;20903;-79
2022/02/08 05:48:30;;;;;;;9.60;2.73;;;6.10;1.00;6.40;101726.00;;;;4966566;28;20475;-79
2022/02/08 05:51:02;;;;;;;10.63;3.10;;;5.90;1.00;6.40;67663.00;;;;4963674;28;20490;-79
2022/02/08 05:53:41;;;;;;;8.90;4.03;;;6.20;1.00;6.30;101736.00;;;;4965289;28;20467;-80
2022/02/08 05:56:12;;;;;;;8.30;3.00;;;5.90;1.00;6.30;101735.00;;;;4969040;28;20455;-78
2022/02/08 05:58:42;;;;;;;8.63;3.13;;;5.80;1.00;6.30;101734.00;;;;4970357;28;20492;-79
2022/02/08 06:01:11;;;;;;;13.27;3.77;;;5.70;1.00;6.30;101760.00;;;;4982675;28;21466;-78
2022/02/08 06:04:00;;;;;;;9.17;3.57;;;5.80;1.00;6.20;101745.00;;;;4976500;28;20479;-80
2022/02/08 06:07:13;;;;;;;15.33;3.87;;;5.70;1.00;6.20;101744.00;;;;4981834;28;20535;-77
2022/02/08 06:09:43;;;;;;;10.37;3.70;;;5.70;1.00;6.30;101733.00;;;;4986403;28;20459;-80
2022/02/08 06:12:12;;;;;;;8.77;3.20;;;5.80;1.00;6.30;101739.00;;;;4976164;28;20478;-78
2022/02/08 06:14:55;;;;;;;9.40;3.43;;;5.90;1.00;6.30;101733.00;;;;4963051;28;22171;-78
2022/02/08 06:17:26;;;;;;;7.23;3.00;;;5.80;1.00;6.30;101743.00;;;;4978487;28;20514;-79
2022/02/08 06:19:56;;;;;;;10.17;3.53;;;5.80;1.00;6.20;101747.00;;;;4963156;28;20498;-78
2022/02/08 06:22:25;;;;;;;10.60;4.27;;;5.70;1.00;6.30;101740.00;;;;4964810;28;21515;-79
2022/02/08 06:24:54;;;;;;;7.83;3.30;;;5.80;1.00;6.30;67651.00;;;;4962638;28;21028;-78
2022/02/08 06:27:29;;;;;;;8.30;3.40;;;5.80;1.00;6.30;101737.00;;;;4963869;28;20822;-79
2022/02/08 06:29:57;;;;;;;10.60;3.80;;;5.80;1.00;6.30;101745.00;;;;4979072;28;20471;-80
2022/02/08 06:32:27;;;;;;;13.60;4.70;;;5.80;1.00;6.40;101742.00;;;;4965602;28;20479;-79
2022/02/08 06:34:57;;;;;;;9.53;3.20;;;5.80;1.00;6.40;101764.00;;;;4965240;28;20444;-78
2022/02/08 06:37:28;;;;;;;10.40;3.70;;;5.90;1.00;6.30;101761.00;;;;4966142;28;20436;-79
2022/02/08 06:39:58;;;;;;;8.50;3.90;;;5.90;1.00;6.30;101753.00;;;;4972535;28;20498;-80
2022/02/08 06:42:27;;;;;;;12.40;3.90;;;5.80;1.00;6.20;101759.00;;;;4975845;28;20475;-78
2022/02/08 06:44:55;;;;;;;9.33;3.60;;;5.70;1.00;6.20;101766.00;;;;4984671;28;20474;-79
2022/02/08 06:47:23;;;;;;;11.03;3.40;;;5.70;1.00;6.10;101758.00;;;;4969472;28;20474;-78
2022/02/08 06:49:54;;;;;;;10.07;4.40;;;5.60;1.00;6.10;67601.00;;;;4982005;28;20538;-80
2022/02/08 06:52:23;;;;;;;10.37;4.20;;;5.50;1.00;6.00;101748.00;;;;4968153;28;20479;-80
2022/02/08 06:54:51;;;;;;;9.43;4.10;;;5.50;1.00;5.90;101749.00;;;;4978709;28;20459;-81
2022/02/08 06:57:21;;;;;;;13.03;3.83;;;5.40;1.00;6.00;101751.00;;;;4996915;28;20450;-80
2022/02/08 06:59:51;;;;;;;8.60;3.77;;;5.40;1.00;5.90;101752.00;;;;4973777;28;20475;-80
2022/02/08 07:02:20;;;;;;;12.57;3.80;;;5.40;1.00;5.90;101762.00;;;;4974822;28;20526;-79
2022/02/08 07:04:48;;;;;;;12.07;3.93;;;5.30;1.00;5.90;101751.00;;;;4967963;28;20510;-79
2022/02/08 07:07:17;;;;;;;8.10;3.90;;;5.30;1.00;5.90;101753.00;;;;4965191;28;20490;-79
2022/02/08 07:09:46;;;;;;;15.13;4.50;;;5.30;1.00;5.80;101751.00;;;;4964593;28;20482;-80
2022/02/08 07:12:14;;;;;;;14.67;5.07;;;5.60;1.00;5.90;101747.00;;;;4964936;28;21639;-79
2022/02/08 07:14:45;;;;;;;10.90;4.77;;;5.30;1.00;217.30;159185.00;;;;4965049;28;20470;-79
2022/02/08 07:17:13;;;;;;;12.20;7.03;;;5.30;1.00;5.90;101757.00;;;;4964841;28;20463;-80
2022/02/08 07:19:42;;;;;;;18.10;4.40;;;5.30;1.00;5.90;101775.00;;;;4964456;28;21033;-80
2022/02/08 07:22:10;;;;;;;7.13;3.03;;;5.40;1.00;5.90;101754.00;;;;4965432;28;20476;-79
2022/02/08 07:24:38;;;;;;;15.90;4.43;;;5.40;1.00;5.90;101768.00;;;;4967762;28;20463;-79
2022/02/08 07:27:08;;;;;;;11.90;3.80;;;5.40;1.00;6.00;101768.00;;;;4967512;28;20458;-79
2022/02/08 07:29:38;;;;;;;12.43;4.30;;;5.70;1.00;6.00;101770.00;;;;4971049;28;21557;-80
2022/02/08 07:32:09;;;;;;;9.40;4.20;;;5.50;1.00;6.10;101767.00;;;;4972397;28;20632;-79
2022/02/08 07:34:43;;;;;;;13.97;4.70;;;5.50;1.00;6.10;101770.00;;;;4969433;28;20462;-79
2022/02/08 07:37:16;;;;;;;9.47;3.63;;;5.60;1.00;6.20;101762.00;;;;4983268;28;20445;-80
2022/02/08 07:39:47;;;;;;;14.93;4.63;;;5.70;1.00;6.20;101766.00;;;;4993751;28;20551;-80
2022/02/08 07:42:16;;;;;;;14.80;3.90;;;5.60;1.00;6.20;101767.00;;;;4993689;28;20476;-80
2022/02/08 07:44:47;;;;;;;11.67;3.83;;;5.70;1.00;6.30;101772.00;;;;4971276;28;20956;-80
2022/02/08 07:47:21;;;;;;;11.00;4.40;;;5.70;1.00;6.30;101768.00;;;;4986837;28;21059;-80
2022/02/08 07:49:51;;;;;;;17.50;5.20;;;5.80;1.00;6.50;101765.00;;;;4986633;28;20618;-79
2022/02/08 07:52:20;;;;;;;13.80;4.10;;;6.00;1.00;6.40;101768.00;;;;4968565;28;20996;-79
2022/02/08 07:54:49;;;;;;;8.13;4.13;;;6.00;1.00;6.50;101763.00;;;;4987345;28;20888;-79
2022/02/08 07:57:17;;;;;;;18.07;4.77;;;6.00;1.00;6.50;67698.00;;;;4992460;28;20464;-79
2022/02/08 07:59:45;;;;;;;18.23;4.77;;;6.00;1.00;6.50;101782.00;;;;5002844;28;20487;-80
2022/02/08 08:02:14;;;;;;;12.60;4.30;;;6.00;1.00;6.50;101775.00;;;;4994559;28;20613;-79
2022/02/08 08:04:43;;;;;;;13.33;4.27;;;5.90;1.00;6.50;101752.00;;;;4997104;28;20475;-79
2022/02/08 08:07:12;;;;;;;11.83;4.60;;;6.00;1.00;6.50;101774.00;;;;4976174;28;20542;-79
2022/02/08 08:09:41;;;;;;;12.80;4.83;;;6.00;1.00;6.60;101780.00;;;;4969808;28;20490;-79
2022/02/08 08:12:14;;;;;;;9.30;4.13;;;6.10;1.00;6.50;101694.00;;;;4971471;28;20467;-79
2022/02/08 08:14:43;;;;;;;8.93;4.40;;;6.10;1.00;6.60;101777.00;;;;4971871;28;20554;-81
2022/02/08 08:17:39;;;;;;;12.97;4.83;;;6.10;1.00;6.60;101768.00;;;;4974269;28;20539;-80
2022/02/08 08:20:11;;;;;;;10.30;3.90;;;6.00;1.00;6.60;101783.00;;;;4985257;28;20553;-79
2022/02/08 08:22:40;;;;;;;13.90;5.10;;;6.20;1.00;6.60;101784.00;;;;4987191;28;21040;-79
2022/02/08 08:25:09;;;;;;;17.40;5.20;;;6.20;1.00;6.70;101783.00;;;;4973358;28;20451;-79
2022/02/08 08:27:37;;;;;;;12.73;4.70;;;6.20;1.00;52.70;159552.00;;;;4972247;28;20491;-80
2022/02/08 08:30:09;;;;;;;13.10;5.83;;;6.20;1.00;6.70;101790.00;;;;4977308;28;20501;-78
2022/02/08 08:32:39;;;;;;;8.87;3.97;;;6.30;1.00;6.70;101792.00;;;;4989474;28;20483;-79
2022/02/08 08:35:11;;;;;;;16.67;4.73;;;6.30;1.00;6.80;101794.00;;;;4988604;28;20471;-80
2022/02/08 08:37:42;;;;;;;11.77;4.40;;;6.30;1.00;6.80;101798.00;;;;4973468;28;20460;-79
2022/02/08 08:40:20;;;;;;;13.20;4.70;;;6.40;1.00;6.90;101804.00;;;;4976786;28;20812;-80
2022/02/08 08:43:01;;;;;;;11.90;4.30;;;6.30;1.00;6.90;101797.00;;;;4977081;28;20478;-79
2022/02/08 08:48:44;;;;;;;12.00;5.43;;;6.40;1.00;7.00;101804.00;;;;4984212;28;20478;-78
2022/02/08 08:51:33;;;;;;;9.73;3.90;;;6.50;1.00;7.00;101800.00;;;;4967718;28;20491;-77
2022/02/08 08:54:05;;;;;;;9.93;4.87;;;6.50;1.00;7.10;101799.00;;;;4968952;28;20455;-78
2022/02/08 08:56:33;;;;;;;15.53;5.00;;;6.60;1.00;7.20;101791.00;;;;4974084;28;20486;-78
2022/02/08 08:59:02;;;;;;;10.80;5.40;;;6.80;1.00;7.30;101798.00;;;;4978500;28;20560;-78
2022/02/08 09:01:31;;;;;;;13.17;5.10;;;6.80;1.00;7.40;101789.00;;;;4972449;28;20491;-78
2022/02/08 09:04:00;;;;;;;11.80;4.30;;;7.00;1.00;7.50;101805.00;;;;4974635;28;20555;-79
2022/02/08 09:06:34;;;;;;;17.50;5.37;;;7.10;1.00;7.50;101793.00;;;;4991740;28;20476;-78
2022/02/08 09:09:09;;;;;;;15.30;4.10;;;7.10;1.00;7.50;101796.00;;;;4975604;28;20447;-78
2022/02/08 09:11:50;;;;;;;14.07;4.37;;;7.10;1.00;7.50;101790.00;;;;4975425;28;20870;-78
2022/02/08 09:14:24;;;;;;;11.97;4.80;;;7.00;1.00;7.50;101807.00;;;;4975888;28;20829;-78
2022/02/08 09:17:03;;;;;;;12.00;4.03;;;7.10;1.00;7.60;101794.00;;;;4987234;28;21004;-77
2022/02/08 09:22:53;;;;;;;13.40;4.37;;;7.20;1.00;7.60;101808.00;;;;4986931;28;21030;-77
2022/02/08 09:28:13;;;;;;;12.97;5.67;;;7.30;1.00;7.80;101805.00;;;;4982727;28;20467;-79
2022/02/08 09:30:45;;;;;;;14.27;4.37;;;7.40;1.00;7.80;101797.00;;;;4986072;28;20451;-80
2022/02/08 09:33:13;;;;;;;15.33;6.10;;;7.80;1.00;7.80;101798.00;;;;4983557;28;20479;-81
2022/02/08 09:35:41;;;;;;;15.00;5.10;;;7.50;1.00;7.80;101806.00;;;;4973174;28;20464;-79
2022/02/08 09:38:11;;;;;;;15.20;4.80;;;7.40;1.00;7.60;101818.00;;;;4970503;28;20456;-79
2022/02/08 09:40:40;;;;;;;7.87;4.13;;;7.40;1.00;7.60;101822.00;;;;4972199;28;20509;-79
2022/02/08 09:43:12;;;;;;;9.53;4.30;;;7.20;1.00;7.50;101813.00;;;;4969562;28;20459;-79
2022/02/08 09:45:46;;;;;;;9.27;4.10;;;7.30;1.00;7.50;101818.00;;;;4967711;28;20466;-79
2022/02/08 09:48:23;;;;;;;13.50;4.97;;;7.10;1.00;7.60;101811.00;;;;4974983;28;20491;-80
2022/02/08 09:50:52;;;;;;;12.40;4.33;;;7.10;1.00;7.70;101819.00;;;;4975655;28;20556;-80
2022/02/08 09:53:29;;;;;;;9.53;4.90;;;7.20;1.00;7.80;101814.00;;;;4976939;28;20463;-80
2022/02/08 09:55:58;;;;;;;11.47;4.70;;;7.30;1.00;7.80;101814.00;;;;4975631;28;20487;-82
2022/02/08 09:58:27;;;;;;;13.90;4.60;;;7.30;1.00;7.90;101834.00;;;;4974343;28;20835;-79
2022/02/08 10:01:09;;;;;;;13.97;3.93;;;7.40;1.00;8.00;101831.00;;;;4977665;28;20475;-80
2022/02/08 10:03:50;;;;;;;12.33;4.60;;;7.50;1.00;7.90;101831.00;;;;4978390;28;20530;-79
2022/02/08 10:06:19;;;;;;;13.97;4.30;;;7.50;1.00;8.10;101824.00;;;;4979074;28;20502;-79
2022/02/08 10:08:59;;;;;;;17.43;5.07;;;7.60;1.00;8.20;101811.00;;;;4974563;28;20467;-79
2022/02/08 10:11:30;;;;;;;10.40;4.60;;;7.80;1.00;8.40;101810.00;;;;4974853;28;20479;-78
2022/02/08 10:14:05;;;;;;;14.50;4.33;;;7.90;1.00;8.60;101815.00;;;;4976252;28;20444;-79
2022/02/08 10:22:13;;;;;;;14.30;6.37;;;8.30;1.00;8.90;101825.00;;;;4972449;28;20494;-81
2022/02/08 10:24:52;;;;;;;9.47;4.20;;;8.50;1.00;8.90;101833.00;;;;4974937;28;20872;-78
2022/02/08 10:27:29;;;;;;;11.30;4.80;;;8.50;1.00;8.70;101825.00;;;;4977185;28;20487;-77
2022/02/08 10:38:43;;;;;;;8.50;3.90;;;8.00;1.00;8.50;101821.00;;;;4984236;28;20597;-81
2022/02/08 10:41:15;;;;;;;12.13;4.53;;;8.20;1.00;8.50;101825.00;;;;5015300;28;20459;-82
2022/02/08 10:43:56;;;;;;;10.70;3.20;;;8.10;1.00;8.60;101831.00;;;;4987262;28;20455;-77
2022/02/08 10:46:30;;;;;;;9.23;3.50;;;8.20;1.00;8.60;101821.00;;;;4985047;28;20455;-82
2022/02/08 10:49:06;;;;;;;14.00;4.13;;;8.10;1.00;8.60;101785.00;;;;4989962;28;20443;-84
2022/02/08 10:51:42;;;;;;;9.97;4.10;;;8.20;1.00;8.60;101811.00;;;;4992980;28;20502;-80
2022/02/08 10:54:16;;;;;;;10.73;4.10;;;8.20;1.00;8.60;101818.00;;;;5003586;28;20539;-79
2022/02/08 10:56:52;;;;;;;7.23;3.50;;;8.20;1.00;8.60;101794.00;;;;4983587;28;20458;-78
2022/02/08 10:59:26;;;;;;;13.50;3.80;;;8.20;1.00;8.60;101818.00;;;;4976911;28;20455;-78
2022/02/08 11:02:01;;;;;;;9.67;4.03;;;8.20;1.00;8.60;101820.00;;;;4972331;28;20483;-79
2022/02/08 11:04:44;;;;;;;7.90;3.83;;;8.20;1.00;8.50;101808.00;;;;4971411;28;20546;-81
2022/02/08 11:07:21;;;;;;;6.77;3.37;;;8.10;1.00;8.60;101808.00;;;;4971583;28;20470;-82
2022/02/08 11:10:06;;;;;;;6.77;3.13;;;8.20;1.00;8.60;101817.00;;;;4970800;28;20856;-79
2022/02/08 11:12:47;;;;;;;7.50;3.40;;;8.20;1.00;8.60;101823.00;;;;4968864;28;20472;-80
2022/02/08 11:15:30;;;;;;;6.67;3.27;;;8.10;1.00;8.60;101804.00;;;;4968953;28;20545;-81
2022/02/08 11:20:47;;;;;;;12.17;3.83;;;8.20;1.00;8.70;101800.00;;;;4984027;28;20459;-78
2022/02/08 11:23:25;;;;;;;7.23;3.40;;;8.60;1.00;8.80;101800.00;;;;4969435;28;20569;-77
2022/02/08 11:25:54;;;;;;;7.73;4.00;;;8.30;1.00;8.90;101804.00;;;;4968018;28;20450;-80
2022/02/08 11:28:30;;;;;;;14.20;3.30;;;8.50;1.00;9.00;101798.00;;;;4969331;28;20574;-81
2022/02/08 11:31:13;;;;;;;8.47;2.87;;;8.60;1.00;9.20;101799.00;;;;4971592;28;21051;-78
2022/02/08 11:34:02;;;;;;;5.90;3.13;;;8.80;1.00;9.20;101803.00;;;;4982425;28;20462;-85
2022/02/08 11:51:21;;;;;;;6.93;3.47;;;9.00;1.00;9.30;101784.00;;;;4965471;28;20472;-81
2022/02/08 11:54:18;;;;;;;10.43;3.30;;;9.20;1.00;9.40;101776.00;;;;4980576;28;20452;-83
2022/02/08 11:57:12;;;;;;;6.73;2.80;;;9.00;1.00;9.30;101773.00;;;;4976777;28;20470;-80
2022/02/08 11:59:55;;;;;;;4.80;2.27;;;9.00;1.00;9.30;101775.00;;;;4971596;28;21023;-81
2022/02/08 12:02:47;;;;;;;9.77;3.10;;;8.90;1.00;9.30;101785.00;;;;4990880;28;20566;-80
2022/02/08 12:05:27;;;;;;;3.53;2.27;;;8.90;1.00;9.30;101769.00;;;;4977107;28;20467;-83
2022/02/08 12:07:59;;;;;;;4.67;2.67;;;8.90;1.00;9.30;101748.00;;;;4968915;28;20483;-81
2022/02/08 12:10:34;;;;;;;5.90;2.80;;;9.10;1.00;9.30;101762.00;;;;4971337;28;20454;-80
2022/02/08 12:13:26;;;;;;;4.20;2.03;;;8.90;1.00;9.30;101754.00;;;;4975886;28;20482;-80
2022/02/08 12:33:14;;;;;;;4.43;2.97;;;9.30;1.00;9.50;101762.00;;;;4962815;28;20502;-81
2022/02/08 12:36:08;;;;;;;5.27;3.00;;;8.80;1.00;9.70;101753.00;;;;4974202;28;20570;-80
2022/02/08 12:50:26;;;;;;;10.60;3.43;;;9.10;1.00;9.50;101760.00;;;;4979492;28;20904;-79
2022/02/08 12:55:57;;;;;;;7.37;3.67;;;9.30;1.00;9.80;68430.00;;;;4986213;28;20455;-80
2022/02/08 12:58:53;;;;;;;12.20;6.23;;;9.40;1.00;9.90;101770.00;;;;5009200;28;20436;-77
2022/02/08 13:01:54;;;;;;;5.27;3.03;;;9.50;1.00;10.00;101764.00;;;;4990436;28;20510;-78
2022/02/08 13:04:45;;;;;;;4.40;2.20;;;9.70;1.00;10.00;101745.00;;;;4990746;28;20886;-80
2022/02/08 14:04:48;;;;;;;4.77;3.17;;;9.30;1.00;9.70;101746.00;;;;4916514;29;20493;-83
2022/02/08 14:10:16;;;;;;;4.13;3.10;;;9.30;1.00;9.60;101753.00;;;;4922622;29;20474;-84
2022/02/08 14:18:41;;;;;;;6.10;3.40;;;9.10;1.00;9.60;101753.00;;;;4926290;29;20430;-85
2022/02/08 14:21:15;;;;;;;4.53;2.80;;;9.20;1.00;9.60;101763.00;;;;4935107;29;20539;-80
2022/02/08 14:24:00;;;;;;;4.40;3.40;;;9.20;1.00;9.60;101754.00;;;;4927751;29;20501;-82
2022/02/08 14:29:43;;;;;;;6.50;3.57;;;9.20;1.00;9.60;101748.00;;;;4910270;29;20499;-81
2022/02/08 14:32:21;;;;;;;8.57;3.70;;;9.20;1.00;9.70;101775.00;;;;4929057;29;20450;-79
2022/02/08 15:05:33;;;;;;;6.20;4.10;;;9.10;1.00;9.30;101767.00;;;;4918551;29;20427;-83
2022/02/08 15:08:11;;;;;;;6.77;4.10;;;8.90;1.00;9.30;101750.00;;;;4921268;29;20451;-85
2022/02/08 15:10:44;;;;;;;8.63;4.37;;;8.90;1.00;9.30;101757.00;;;;4930720;29;20496;-84
2022/02/08 15:13:14;;;;;;;6.50;4.30;;;8.90;1.00;9.20;101734.00;;;;4928848;29;20481;-85
2022/02/08 15:16:21;;;;;;;8.10;4.60;;;8.80;1.00;9.30;101750.00;;;;4931506;29;20449;-84
2022/02/08 15:18:50;;;;;;;6.37;4.40;;;8.80;1.00;9.30;101758.00;;;;4947687;29;20507;-83
2022/02/08 15:21:22;;;;;;;8.20;5.00;;;8.90;1.00;9.30;101751.00;;;;4934056;29;20459;-83
2022/02/08 15:23:52;;;;;;;7.60;4.80;;;8.90;1.00;9.30;101774.00;;;;4924008;29;20787;-83
2022/02/08 15:26:24;;;;;;;7.00;4.77;;;8.90;1.00;9.30;101752.00;;;;4930934;29;20479;-84
2022/02/08 15:28:53;;;;;;;6.60;5.00;;;8.80;1.00;9.30;101780.00;;;;4926416;29;20479;-82
2022/02/08 15:31:22;;;;;;;7.50;4.73;;;8.80;1.00;9.20;101778.00;;;;4921376;29;20457;-82
2022/02/08 15:33:51;;;;;;;7.53;5.13;;;8.80;1.00;9.20;101772.00;;;;4940319;29;20450;-84
2022/02/08 15:36:23;;;;;;;6.40;4.83;;;8.80;1.00;9.30;101732.00;;;;4939793;29;20477;-85
2022/02/08 15:38:54;;;;;;;6.40;4.87;;;8.80;1.00;9.20;101769.00;;;;4896315;29;20483;-82
2022/02/08 15:41:23;;;;;;;6.80;4.73;;;8.80;1.00;9.20;101769.00;;;;4916643;29;20493;-81